FDX5062 KPIT-KBNA
Flight info
| Callsign | FDX5062 |
|---|---|
| Flight time | 1h 19m |
| Altitude | 38000 |
| Route | AHTIY BURGS HVQ Q68 YOCKY CUTRR PASLY5 |
| Aircraft | B738/M-SDE2E3FGHIRWXY/LB1 |
Departure
| Time | 2026-05-04 16:17 |
|---|---|
| Airport | Pittsburgh International Airport (KPIT) |
Arrival
| Time | 2026-05-04 17:36 |
|---|---|
| Airport | Nashville International Airport (KBNA) |
| Time | Latitude | Longitude | Altitude | Speed | Heading |
|---|---|---|---|---|---|
| 2026-05-04 15:41 | 40.49761 | -80.24154 | 1175 ft | 0 kts | 3° |
| 2026-05-04 16:00 | 40.49747 | -80.24153 | 1177 ft | 4 kts | 339° |
| 2026-05-04 16:01 | 40.49726 | -80.24147 | 1180 ft | 4 kts | 339° |
| 2026-05-04 16:01 | 40.49708 | -80.24128 | 1173 ft | 4 kts | 287° |
| 2026-05-04 16:01 | 40.49705 | -80.24104 | 1175 ft | 0 kts | 272° |
| 2026-05-04 16:01 | 40.49705 | -80.24098 | 1175 ft | 2 kts | 269° |
| 2026-05-04 16:02 | 40.49705 | -80.24096 | 1174 ft | 0 kts | 268° |
| 2026-05-04 16:04 | 40.49705 | -80.24098 | 1173 ft | 1 kts | 268° |
| 2026-05-04 16:05 | 40.49704 | -80.24129 | 1171 ft | 7 kts | 267° |
| 2026-05-04 16:05 | 40.49699 | -80.24207 | 1173 ft | 10 kts | 258° |
| 2026-05-04 16:05 | 40.49566 | -80.24378 | 1164 ft | 18 kts | 181° |
| 2026-05-04 16:06 | 40.49471 | -80.24276 | 1158 ft | 16 kts | 118° |
| 2026-05-04 16:06 | 40.49451 | -80.24022 | 1158 ft | 1 kts | 90° |
| 2026-05-04 16:07 | 40.49451 | -80.23953 | 1158 ft | 7 kts | 90° |
| 2026-05-04 16:07 | 40.49295 | -80.23884 | 1148 ft | 12 kts | 175° |
| 2026-05-04 16:08 | 40.49223 | -80.23889 | 1151 ft | 11 kts | 197° |
| 2026-05-04 16:08 | 40.49065 | -80.23769 | 1152 ft | 11 kts | 88° |
| 2026-05-04 16:09 | 40.49059 | -80.23570 | 1153 ft | 11 kts | 96° |
| 2026-05-04 16:09 | 40.49056 | -80.23381 | 1152 ft | 10 kts | 90° |
| 2026-05-04 16:10 | 40.49050 | -80.23180 | 1152 ft | 12 kts | 92° |
| 2026-05-04 16:11 | 40.49042 | -80.22840 | 1152 ft | 14 kts | 92° |
| 2026-05-04 16:11 | 40.49038 | -80.22713 | 1150 ft | 14 kts | 92° |
| 2026-05-04 16:12 | 40.49028 | -80.22359 | 1152 ft | 12 kts | 92° |
| 2026-05-04 16:12 | 40.49035 | -80.22010 | 1151 ft | 13 kts | 92° |
| 2026-05-04 16:13 | 40.49029 | -80.21768 | 1148 ft | 14 kts | 93° |
| 2026-05-04 16:13 | 40.49003 | -80.21532 | 1151 ft | 13 kts | 108° |
| 2026-05-04 16:14 | 40.48985 | -80.21309 | 1151 ft | 12 kts | 91° |
| 2026-05-04 16:14 | 40.48981 | -80.21094 | 1150 ft | 11 kts | 92° |
| 2026-05-04 16:15 | 40.48892 | -80.20993 | 1149 ft | 10 kts | 264° |
| 2026-05-04 16:16 | 40.48896 | -80.21172 | 1148 ft | 10 kts | 272° |
| 2026-05-04 16:16 | 40.48950 | -80.23416 | 1290 ft | 178 kts | 271° |
| 2026-05-04 16:17 | 40.49229 | -80.26693 | 3535 ft | 182 kts | 278° |
| 2026-05-04 16:18 | 40.47263 | -80.30983 | 4929 ft | 232 kts | 196° |
| 2026-05-04 16:18 | 40.45679 | -80.31361 | 5589 ft | 236 kts | 193° |
| 2026-05-04 16:19 | 40.40775 | -80.32363 | 7814 ft | 242 kts | 193° |
| 2026-05-04 16:19 | 40.37348 | -80.32494 | 9115 ft | 262 kts | 168° |
| 2026-05-04 16:20 | 40.31963 | -80.30648 | 10913 ft | 270 kts | 181° |
| 2026-05-04 16:20 | 40.28163 | -80.30609 | 12057 ft | 276 kts | 189° |
| 2026-05-04 16:21 | 40.22374 | -80.31445 | 13748 ft | 284 kts | 194° |
| 2026-05-04 16:22 | 40.18427 | -80.32261 | 14854 ft | 290 kts | 195° |
| 2026-05-04 16:22 | 40.12360 | -80.33634 | 16440 ft | 299 kts | 195° |
| 2026-05-04 16:23 | 40.06143 | -80.35073 | 17020 ft | 305 kts | 195° |
| 2026-05-04 16:24 | 39.97771 | -80.37020 | 17031 ft | 307 kts | 195° |
| 2026-05-04 16:25 | 39.93561 | -80.37997 | 17017 ft | 307 kts | 196° |
| 2026-05-04 16:26 | 39.86475 | -80.43069 | 17021 ft | 290 kts | 222° |
| 2026-05-04 16:26 | 39.81577 | -80.47696 | 17018 ft | 289 kts | 221° |
| 2026-05-04 16:27 | 39.78310 | -80.50751 | 17013 ft | 290 kts | 221° |
| 2026-05-04 16:28 | 39.73417 | -80.55318 | 17024 ft | 290 kts | 221° |
| 2026-05-04 16:28 | 39.68160 | -80.60197 | 17330 ft | 340 kts | 220° |
| 2026-05-04 16:29 | 39.59780 | -80.67696 | 19201 ft | 376 kts | 219° |
| 2026-05-04 16:30 | 39.53259 | -80.73519 | 20943 ft | 386 kts | 219° |
| 2026-05-04 16:31 | 39.48792 | -80.77500 | 22050 ft | 393 kts | 219° |
| 2026-05-04 16:31 | 39.41955 | -80.83579 | 23532 ft | 402 kts | 219° |
| 2026-05-04 16:32 | 39.35008 | -80.89757 | 24980 ft | 410 kts | 219° |
| 2026-05-04 16:33 | 39.30274 | -80.93955 | 25883 ft | 414 kts | 219° |
| 2026-05-04 16:33 | 39.25494 | -80.98190 | 26722 ft | 420 kts | 220° |
| 2026-05-04 16:34 | 39.20657 | -81.02465 | 27555 ft | 423 kts | 220° |
| 2026-05-04 16:34 | 39.18222 | -81.04614 | 27949 ft | 425 kts | 220° |
| 2026-05-04 16:35 | 39.10892 | -81.11071 | 29003 ft | 430 kts | 220° |
| 2026-05-04 16:35 | 39.03433 | -81.17628 | 30025 ft | 435 kts | 220° |
| 2026-05-04 16:36 | 39.00933 | -81.19821 | 30317 ft | 437 kts | 220° |
| 2026-05-04 16:36 | 38.95881 | -81.24249 | 30860 ft | 441 kts | 220° |
| 2026-05-04 16:37 | 38.90866 | -81.28632 | 31675 ft | 437 kts | 220° |
| 2026-05-04 16:37 | 38.88356 | -81.30822 | 32004 ft | 437 kts | 220° |
| 2026-05-04 16:37 | 38.83328 | -81.35210 | 32646 ft | 437 kts | 221° |
| 2026-05-04 16:38 | 38.78304 | -81.39587 | 33252 ft | 437 kts | 221° |
| 2026-05-04 16:39 | 38.70804 | -81.46107 | 34152 ft | 436 kts | 221° |
| 2026-05-04 16:39 | 38.65798 | -81.50447 | 34795 ft | 434 kts | 221° |
| 2026-05-04 16:40 | 38.60811 | -81.54764 | 35403 ft | 432 kts | 221° |
| 2026-05-04 16:40 | 38.55840 | -81.59060 | 35943 ft | 430 kts | 221° |
| 2026-05-04 16:41 | 38.50884 | -81.63336 | 36431 ft | 430 kts | 220° |
| 2026-05-04 16:41 | 38.43515 | -81.69682 | 37321 ft | 422 kts | 220° |
| 2026-05-04 16:42 | 38.36467 | -81.76170 | 37970 ft | 410 kts | 233° |
| 2026-05-04 16:43 | 38.33451 | -81.82194 | 38004 ft | 400 kts | 252° |
| 2026-05-04 16:43 | 38.30722 | -81.92088 | 38013 ft | 395 kts | 254° |
| 2026-05-04 16:45 | 38.25205 | -82.11741 | 38001 ft | 392 kts | 253° |
| 2026-05-04 16:46 | 38.20584 | -82.28009 | 37991 ft | 393 kts | 253° |
| 2026-05-04 16:47 | 38.16839 | -82.41114 | 37995 ft | 396 kts | 253° |
| 2026-05-04 16:48 | 38.13071 | -82.54277 | 37992 ft | 399 kts | 253° |
| 2026-05-04 16:49 | 38.09257 | -82.67545 | 37995 ft | 401 kts | 253° |
| 2026-05-04 16:50 | 38.05430 | -82.80791 | 37990 ft | 401 kts | 253° |
| 2026-05-04 16:51 | 38.02547 | -82.90726 | 37999 ft | 399 kts | 253° |
| 2026-05-04 16:52 | 37.98708 | -83.03892 | 38007 ft | 397 kts | 253° |
| 2026-05-04 16:53 | 37.95843 | -83.13681 | 38003 ft | 396 kts | 254° |
| 2026-05-04 16:54 | 37.92007 | -83.26736 | 38011 ft | 394 kts | 253° |
| 2026-05-04 16:55 | 37.86265 | -83.46152 | 38010 ft | 393 kts | 253° |
| 2026-05-04 16:56 | 37.81456 | -83.62313 | 38013 ft | 395 kts | 254° |
| 2026-05-04 16:57 | 37.78538 | -83.72076 | 38004 ft | 396 kts | 254° |
| 2026-05-04 16:58 | 37.74613 | -83.85148 | 37993 ft | 399 kts | 253° |
| 2026-05-04 17:00 | 37.68692 | -84.04754 | 37992 ft | 399 kts | 253° |
| 2026-05-04 17:01 | 37.61692 | -84.19793 | 37991 ft | 416 kts | 227° |
| 2026-05-04 17:02 | 37.53652 | -84.28472 | 37995 ft | 414 kts | 227° |
| 2026-05-04 17:03 | 37.46425 | -84.36357 | 38004 ft | 412 kts | 227° |
| 2026-05-04 17:03 | 37.39906 | -84.43461 | 37145 ft | 410 kts | 227° |
| 2026-05-04 17:04 | 37.36348 | -84.47327 | 36510 ft | 403 kts | 228° |
| 2026-05-04 17:04 | 37.32149 | -84.51885 | 35727 ft | 395 kts | 229° |
| 2026-05-04 17:05 | 37.28033 | -84.56350 | 34945 ft | 387 kts | 229° |
| 2026-05-04 17:05 | 37.24018 | -84.60700 | 34196 ft | 380 kts | 229° |
| 2026-05-04 17:06 | 37.20048 | -84.64994 | 33448 ft | 374 kts | 229° |
| 2026-05-04 17:06 | 37.18092 | -84.67108 | 33079 ft | 370 kts | 229° |
| 2026-05-04 17:07 | 37.14225 | -84.71284 | 32342 ft | 364 kts | 229° |
| 2026-05-04 17:07 | 37.12956 | -84.72653 | 32128 ft | 362 kts | 229° |
| 2026-05-04 17:07 | 37.10416 | -84.75392 | 31642 ft | 358 kts | 229° |
| 2026-05-04 17:07 | 37.08538 | -84.77417 | 31292 ft | 355 kts | 229° |
| 2026-05-04 17:08 | 37.06696 | -84.79400 | 30957 ft | 353 kts | 228° |
| 2026-05-04 17:08 | 37.03018 | -84.83384 | 30275 ft | 345 kts | 232° |
| 2026-05-04 17:08 | 37.01599 | -84.85696 | 30012 ft | 328 kts | 246° |
| 2026-05-04 17:09 | 37.00466 | -84.88153 | 29657 ft | 326 kts | 245° |
| 2026-05-04 17:09 | 36.99314 | -84.90585 | 29328 ft | 323 kts | 245° |
| 2026-05-04 17:09 | 36.98161 | -84.92987 | 28984 ft | 321 kts | 245° |
| 2026-05-04 17:10 | 36.95876 | -84.97704 | 28291 ft | 317 kts | 244° |
| 2026-05-04 17:10 | 36.92456 | -85.04728 | 27270 ft | 316 kts | 244° |
| 2026-05-04 17:11 | 36.91299 | -85.07105 | 26935 ft | 326 kts | 244° |
| 2026-05-04 17:11 | 36.90103 | -85.09561 | 26578 ft | 333 kts | 244° |
| 2026-05-04 17:11 | 36.87696 | -85.14475 | 25838 ft | 329 kts | 244° |
| 2026-05-04 17:12 | 36.86502 | -85.16907 | 25476 ft | 327 kts | 244° |
| 2026-05-04 17:12 | 36.84163 | -85.21671 | 24786 ft | 322 kts | 244° |
| 2026-05-04 17:13 | 36.80688 | -85.28748 | 23737 ft | 316 kts | 244° |
| 2026-05-04 17:14 | 36.77288 | -85.35659 | 22713 ft | 310 kts | 244° |
| 2026-05-04 17:14 | 36.76160 | -85.37945 | 22374 ft | 309 kts | 244° |
| 2026-05-04 17:14 | 36.73941 | -85.42499 | 21632 ft | 308 kts | 244° |
| 2026-05-04 17:15 | 36.72852 | -85.44817 | 21232 ft | 311 kts | 245° |
| 2026-05-04 17:15 | 36.70661 | -85.49503 | 20410 ft | 314 kts | 244° |
| 2026-05-04 17:16 | 36.68466 | -85.54176 | 19580 ft | 314 kts | 244° |
| 2026-05-04 17:16 | 36.65151 | -85.61209 | 18337 ft | 314 kts | 244° |
| 2026-05-04 17:17 | 36.64047 | -85.63546 | 17933 ft | 313 kts | 244° |
| 2026-05-04 17:17 | 36.60739 | -85.70545 | 16695 ft | 312 kts | 243° |
| 2026-05-04 17:18 | 36.59639 | -85.72868 | 16288 ft | 311 kts | 243° |
| 2026-05-04 17:18 | 36.57461 | -85.77462 | 15478 ft | 310 kts | 243° |
| 2026-05-04 17:19 | 36.55269 | -85.82071 | 14664 ft | 309 kts | 242° |
| 2026-05-04 17:19 | 36.53095 | -85.86649 | 13852 ft | 307 kts | 242° |
| 2026-05-04 17:20 | 36.50934 | -85.91194 | 13035 ft | 304 kts | 242° |
| 2026-05-04 17:20 | 36.48807 | -85.95661 | 12245 ft | 301 kts | 242° |
| 2026-05-04 17:20 | 36.47746 | -85.97887 | 12040 ft | 295 kts | 242° |
| 2026-05-04 17:21 | 36.45742 | -86.02070 | 11984 ft | 268 kts | 241° |
| 2026-05-04 17:21 | 36.43931 | -86.05854 | 11998 ft | 242 kts | 241° |
| 2026-05-04 17:22 | 36.43091 | -86.07607 | 12007 ft | 230 kts | 242° |
| 2026-05-04 17:22 | 36.42283 | -86.09304 | 12010 ft | 227 kts | 241° |
| 2026-05-04 17:23 | 36.39902 | -86.14276 | 11989 ft | 213 kts | 244° |
| 2026-05-04 17:23 | 36.39524 | -86.15956 | 11871 ft | 196 kts | 273° |
| 2026-05-04 17:23 | 36.40073 | -86.19048 | 11334 ft | 181 kts | 285° |
| 2026-05-04 17:24 | 36.40476 | -86.20527 | 10912 ft | 180 kts | 285° |
| 2026-05-04 17:24 | 36.41667 | -86.24971 | 9731 ft | 181 kts | 284° |
| 2026-05-04 17:25 | 36.42052 | -86.26432 | 9357 ft | 180 kts | 285° |
| 2026-05-04 17:25 | 36.42830 | -86.29397 | 8559 ft | 180 kts | 285° |
| 2026-05-04 17:26 | 36.43499 | -86.32340 | 7922 ft | 175 kts | 267° |
| 2026-05-04 17:26 | 36.41658 | -86.36059 | 6788 ft | 169 kts | 237° |
| 2026-05-04 17:27 | 36.40297 | -86.38389 | 6205 ft | 166 kts | 237° |
| 2026-05-04 17:27 | 36.38951 | -86.40683 | 5513 ft | 164 kts | 237° |
| 2026-05-04 17:28 | 36.37624 | -86.42959 | 5009 ft | 157 kts | 235° |
| 2026-05-04 17:29 | 36.35626 | -86.46386 | 4611 ft | 171 kts | 236° |
| 2026-05-04 17:29 | 36.33517 | -86.49866 | 4257 ft | 166 kts | 234° |
| 2026-05-04 17:30 | 36.31513 | -86.53310 | 3909 ft | 168 kts | 234° |
| 2026-05-04 17:31 | 36.30135 | -86.55673 | 3714 ft | 169 kts | 234° |
| 2026-05-04 17:31 | 36.28075 | -86.59155 | 3355 ft | 168 kts | 233° |
| 2026-05-04 17:32 | 36.26734 | -86.61503 | 3154 ft | 167 kts | 236° |
| 2026-05-04 17:33 | 36.23924 | -86.63886 | 2901 ft | 175 kts | 199° |
| 2026-05-04 17:33 | 36.22693 | -86.64363 | 2457 ft | 187 kts | 198° |
| 2026-05-04 17:34 | 36.19254 | -86.65757 | 1737 ft | 156 kts | 201° |
| 2026-05-04 17:34 | 36.18249 | -86.66121 | 1582 ft | 150 kts | 197° |
| 2026-05-04 17:35 | 36.15546 | -86.67162 | 1001 ft | 125 kts | 198° |
| 2026-05-04 17:35 | 36.13941 | -86.67741 | 683 ft | 119 kts | 209° |
| 2026-05-04 17:35 | 36.13191 | -86.68088 | 578 ft | 109 kts | 200° |
| 2026-05-04 17:36 | 36.12584 | -86.68327 | 580 ft | 66 kts | 197° |
| 2026-05-04 17:36 | 36.12379 | -86.68415 | 583 ft | 16 kts | 220° |
| 2026-05-04 17:36 | 36.12331 | -86.68520 | 584 ft | 12 kts | 266° |
| 2026-05-04 17:36 | 36.12396 | -86.68562 | 583 ft | 12 kts | 6° |
| 2026-05-04 17:37 | 36.12475 | -86.68537 | 582 ft | 11 kts | 17° |
| 2026-05-04 17:37 | 36.12546 | -86.68548 | 581 ft | 11 kts | 311° |
| 2026-05-04 17:37 | 36.12618 | -86.68570 | 580 ft | 12 kts | 12° |
| 2026-05-04 17:37 | 36.12699 | -86.68536 | 579 ft | 12 kts | 18° |
| 2026-05-04 17:38 | 36.12782 | -86.68508 | 579 ft | 12 kts | 14° |
| 2026-05-04 17:38 | 36.12865 | -86.68483 | 579 ft | 12 kts | 13° |
| 2026-05-04 17:38 | 36.12921 | -86.68541 | 580 ft | 12 kts | 289° |
| 2026-05-04 17:38 | 36.12924 | -86.68553 | 578 ft | 0 kts | 287° |
| 2026-05-04 17:40 | 36.12696 | -86.68633 | 579 ft | 0 kts | 287° |